createdAt,value
2022-09-29T00:00:17.803Z,11.93
2022-09-29T00:05:19.629Z,12.70
2022-09-29T00:10:21.353Z,8.65
2022-09-29T00:15:23.143Z,9.50
2022-09-29T00:20:24.888Z,6.95
2022-09-29T00:25:26.671Z,8.98
2022-09-29T00:30:28.475Z,9.55
2022-09-29T00:35:30.201Z,10.80
2022-09-29T00:40:31.970Z,12.65
2022-09-29T00:45:33.880Z,7.55
2022-09-29T00:50:44.584Z,12.75
2022-09-29T00:55:55.172Z,8.98
2022-09-29T01:00:57.011Z,12.30
2022-09-29T01:06:06.114Z,13.30
2022-09-29T01:11:09.810Z,16.60
2022-09-29T01:16:11.571Z,14.00
2022-09-29T01:21:35.174Z,8.32
2022-09-29T01:26:42.725Z,7.68
2022-09-29T01:32:10.839Z,14.40
2022-09-29T01:37:37.607Z,9.52
2022-09-29T01:43:15.491Z,12.18
2022-09-29T01:48:26.831Z,9.97
2022-09-29T01:53:35.100Z,17.33
2022-09-29T01:58:53.294Z,9.80
2022-09-29T02:04:02.228Z,10.20
2022-09-29T02:09:13.415Z,9.98
2022-09-29T02:14:19.644Z,13.48
2022-09-29T02:19:26.007Z,14.23
2022-09-29T02:24:27.803Z,13.68
2022-09-29T02:29:29.728Z,14.52
2022-09-29T02:34:35.588Z,15.88
2022-09-29T02:39:45.912Z,14.05
2022-09-29T02:45:09.272Z,12.38
2022-09-29T02:50:23.803Z,13.02
2022-09-29T02:55:43.293Z,11.68
2022-09-29T03:00:45.508Z,18.35
2022-09-29T03:05:47.589Z,16.35
2022-09-29T03:10:49.727Z,13.63
2022-09-29T03:15:51.515Z,14.35
2022-09-29T03:20:55.213Z,13.77
2022-09-29T03:25:56.904Z,10.95
2022-09-29T03:31:07.837Z,9.65
2022-09-29T03:36:09.810Z,12.32
2022-09-29T03:41:11.551Z,10.98
2022-09-29T03:46:13.345Z,15.10
2022-09-29T03:51:15.175Z,13.63
2022-09-29T03:56:16.958Z,12.27
2022-09-29T04:01:18.781Z,11.98
2022-09-29T04:06:20.568Z,14.50
2022-09-29T04:11:22.314Z,16.90
2022-09-29T04:16:24.191Z,15.63
2022-09-29T04:21:25.968Z,14.88
2022-09-29T04:26:27.681Z,15.27
2022-09-29T04:31:29.440Z,27.67
2022-09-29T04:36:31.191Z,16.67
2022-09-29T04:41:35.308Z,19.58
2022-09-29T04:46:37.173Z,15.18
2022-09-29T04:51:38.915Z,15.95
2022-09-29T04:56:40.619Z,13.63
2022-09-29T05:01:42.472Z,15.57
2022-09-29T05:06:44.403Z,15.50
2022-09-29T05:11:46.137Z,15.65
2022-09-29T05:16:48.003Z,23.88
2022-09-29T05:21:49.830Z,16.70
2022-09-29T05:26:56.125Z,20.40
2022-09-29T05:32:00.069Z,23.25
2022-09-29T05:37:01.856Z,21.40
2022-09-29T05:42:11.443Z,17.30
2022-09-29T05:47:13.160Z,22.05
2022-09-29T05:52:15.018Z,22.63
2022-09-29T05:57:17.031Z,20.85
2022-09-29T06:02:18.958Z,19.95
2022-09-29T06:07:20.804Z,25.52
2022-09-29T06:12:22.565Z,20.90
2022-09-29T06:17:24.319Z,23.60
2022-09-29T06:22:27.583Z,19.20
2022-09-29T06:27:29.347Z,23.17
2022-09-29T06:32:31.196Z,20.20
2022-09-29T06:37:36.031Z,26.10
2022-09-29T06:42:38.674Z,24.23
2022-09-29T06:47:40.430Z,23.48
2022-09-29T06:52:43.840Z,28.88
2022-09-29T06:57:46.645Z,17.92
2022-09-29T07:02:48.336Z,18.00
2022-09-29T07:07:53.152Z,18.80
2022-09-29T07:12:56.458Z,15.75
2022-09-29T07:18:00.194Z,17.33
2022-09-29T07:23:01.940Z,18.50
2022-09-29T07:28:03.873Z,17.83
2022-09-29T07:33:05.625Z,18.02
2022-09-29T07:38:07.355Z,20.42
2022-09-29T07:43:09.105Z,15.25
2022-09-29T07:48:10.829Z,14.15
2022-09-29T07:53:13.621Z,16.13
2022-09-29T07:58:15.328Z,15.70
2022-09-29T08:03:17.074Z,23.02
2022-09-29T08:08:18.842Z,15.05
2022-09-29T08:13:20.883Z,15.65
2022-09-29T08:18:22.605Z,18.80
2022-09-29T08:23:24.517Z,13.15
2022-09-29T08:28:31.538Z,10.15
2022-09-29T08:33:35.218Z,8.88
2022-09-29T08:38:42.713Z,8.55
2022-09-29T08:43:47.340Z,7.20
2022-09-29T08:48:58.098Z,6.90
2022-09-29T08:54:07.943Z,6.63
2022-09-29T08:59:13.065Z,7.38
2022-09-29T09:04:39.576Z,9.63
2022-09-29T09:09:50.464Z,7.85
2022-09-29T09:15:02.117Z,6.25
2022-09-29T09:20:44.794Z,6.05
2022-09-29T09:26:00.868Z,6.18
2022-09-29T09:31:15.078Z,6.25
2022-09-29T09:36:32.927Z,6.15
2022-09-29T09:46:53.571Z,7.53
2022-09-29T09:52:22.803Z,11.43
2022-09-29T09:57:43.171Z,11.48
2022-09-29T10:02:55.038Z,12.73
2022-09-29T10:07:56.862Z,11.77
2022-09-29T10:13:02.282Z,12.52
2022-09-29T10:18:14.939Z,11.07
2022-09-29T10:23:32.953Z,15.05
2022-09-29T10:28:42.820Z,10.97
2022-09-29T10:34:15.328Z,9.13
2022-09-29T10:39:41.055Z,13.27
2022-09-29T10:44:42.820Z,10.02
2022-09-29T10:49:44.596Z,11.55
2022-09-29T10:55:06.552Z,12.38
2022-09-29T11:00:26.160Z,11.90
2022-09-29T11:05:28.001Z,10.40
2022-09-29T11:10:36.039Z,11.65
2022-09-29T11:15:41.738Z,14.60
2022-09-29T11:20:44.812Z,8.63
2022-09-29T11:26:10.372Z,7.85
2022-09-29T11:31:28.999Z,7.25
2022-09-29T11:36:42.479Z,9.80
2022-09-29T11:41:56.308Z,8.82
2022-09-29T11:47:15.216Z,10.38
2022-09-29T11:52:35.433Z,11.25
2022-09-29T11:57:55.984Z,9.02
2022-09-29T12:03:22.817Z,9.15
2022-09-29T12:08:57.219Z,10.98
2022-09-29T12:14:18.316Z,9.05
2022-09-29T12:19:24.823Z,8.43
2022-09-29T12:24:32.377Z,8.18
2022-09-29T12:29:40.230Z,10.43
2022-09-29T12:34:51.217Z,11.93
2022-09-29T12:39:56.323Z,8.40
2022-09-29T12:45:26.436Z,8.70
2022-09-29T12:50:30.724Z,10.50
2022-09-29T12:56:00.057Z,7.30
2022-09-29T13:01:21.770Z,6.82
2022-09-29T13:07:07.692Z,6.53
2022-09-29T13:12:24.439Z,7.78
2022-09-29T13:18:05.277Z,6.68
2022-09-29T13:23:12.815Z,5.57
2022-09-29T13:28:32.453Z,6.03
2022-09-29T13:33:34.795Z,5.82
2022-09-29T13:38:39.152Z,6.90
2022-09-29T13:44:03.447Z,6.10
2022-09-29T13:49:14.047Z,7.35
2022-09-29T13:54:43.560Z,7.10
2022-09-29T14:00:16.233Z,8.25
2022-09-29T14:05:24.015Z,6.47
2022-09-29T14:11:03.826Z,7.20
2022-09-29T14:16:18.784Z,6.50
2022-09-29T14:21:45.571Z,8.82
2022-09-29T14:26:54.596Z,11.02
2022-09-29T14:31:58.747Z,7.75
2022-09-29T14:37:02.599Z,14.63
2022-09-29T14:42:05.893Z,9.88
2022-09-29T14:48:08.482Z,9.88
2022-09-29T14:53:41.876Z,8.85
2022-09-29T14:59:02.500Z,7.47
2022-09-29T15:04:14.644Z,8.43
2022-09-29T15:09:20.611Z,9.50
2022-09-29T15:14:30.859Z,7.60
2022-09-29T15:20:11.328Z,7.63
2022-09-29T15:25:16.020Z,63.97
2022-09-29T15:30:21.885Z,10.15
2022-09-29T15:35:25.607Z,9.50
2022-09-29T15:40:35.852Z,10.95
2022-09-29T15:45:37.564Z,22.98
2022-09-29T15:50:43.048Z,31.98
2022-09-29T15:55:44.812Z,29.58
2022-09-29T16:00:46.673Z,22.98
2022-09-29T16:06:04.317Z,37.90
2022-09-29T16:11:09.258Z,144.32
2022-09-29T16:16:12.286Z,72.10
2022-09-29T16:21:18.677Z,50.10
2022-09-29T16:26:50.706Z,49.35
2022-09-29T16:31:53.346Z,30.42
2022-09-29T16:37:06.839Z,34.47
2022-09-29T16:42:25.606Z,27.25
2022-09-29T16:52:41.895Z,26.08
2022-09-29T16:58:04.243Z,41.58
2022-09-29T17:03:06.162Z,53.67
2022-09-29T17:08:18.484Z,46.33
2022-09-29T17:13:21.107Z,49.58
2022-09-29T17:18:27.034Z,39.65
2022-09-29T17:23:28.783Z,27.73
2022-09-29T17:28:34.481Z,22.10
2022-09-29T17:33:39.966Z,21.48
2022-09-29T17:38:42.261Z,25.08
2022-09-29T17:43:47.705Z,16.98
2022-09-29T17:48:49.571Z,22.52
2022-09-29T17:53:51.263Z,23.73
2022-09-29T17:58:54.248Z,21.20
2022-09-29T18:03:57.302Z,28.23
2022-09-29T18:08:59.796Z,32.05
2022-09-29T18:14:01.664Z,20.92
2022-09-29T18:19:03.551Z,29.00
2022-09-29T18:24:05.360Z,33.90
2022-09-29T18:29:19.324Z,25.92
2022-09-29T18:34:22.287Z,29.15
2022-09-29T18:39:24.168Z,29.20
2022-09-29T18:44:29.372Z,28.63
2022-09-29T18:49:31.184Z,26.25
2022-09-29T18:54:33.471Z,23.60
2022-09-29T18:59:35.473Z,31.52
2022-09-29T19:04:37.179Z,25.15
2022-09-29T19:09:39.296Z,25.45
2022-09-29T19:14:42.591Z,24.40
2022-09-29T19:19:44.373Z,26.38
2022-09-29T19:24:46.744Z,27.13
2022-09-29T19:29:53.590Z,30.25
2022-09-29T19:34:56.158Z,26.88
2022-09-29T19:39:58.264Z,29.52
2022-09-29T19:44:59.972Z,34.50
2022-09-29T19:50:20.629Z,34.97
2022-09-29T19:55:23.231Z,35.20
2022-09-29T20:00:25.442Z,27.40
2022-09-29T20:05:27.452Z,34.72
2022-09-29T20:10:29.681Z,30.80
2022-09-29T20:15:31.666Z,32.50
2022-09-29T20:20:37.187Z,41.35
2022-09-29T20:25:38.905Z,26.13
2022-09-29T20:30:40.623Z,33.15
2022-09-29T20:35:42.319Z,39.15
2022-09-29T20:40:44.200Z,51.30
2022-09-29T20:45:46.071Z,51.20
2022-09-29T20:50:47.923Z,50.70
2022-09-29T20:55:50.709Z,44.47
2022-09-29T21:00:52.653Z,40.72
2022-09-29T21:06:51.135Z,40.67
2022-09-29T21:11:54.234Z,47.35
2022-09-29T21:16:56.102Z,92.28
2022-09-29T21:21:57.891Z,111.32
2022-09-29T21:26:59.587Z,130.43
2022-09-29T21:32:02.150Z,145.38
2022-09-29T21:37:03.976Z,146.20
2022-09-29T21:42:05.774Z,114.03
2022-09-29T21:47:07.545Z,46.05
2022-09-29T21:52:09.354Z,42.83
2022-09-29T21:57:11.145Z,32.30
2022-09-29T22:02:13.040Z,34.67
2022-09-29T22:07:15.004Z,32.17
2022-09-29T22:12:16.767Z,26.02
2022-09-29T22:17:18.588Z,24.60
2022-09-29T22:22:21.189Z,22.23
2022-09-29T22:27:23.030Z,21.65
2022-09-29T22:32:24.817Z,24.60
2022-09-29T22:37:30.878Z,29.67
2022-09-29T22:42:33.051Z,26.20
2022-09-29T22:47:34.843Z,26.83
2022-09-29T22:52:36.652Z,28.30
2022-09-29T22:57:38.475Z,25.77
2022-09-29T23:02:40.474Z,28.30
2022-09-29T23:07:42.741Z,30.27
2022-09-29T23:12:44.936Z,32.92
2022-09-29T23:17:47.198Z,29.58
2022-09-29T23:22:48.977Z,34.22
2022-09-29T23:27:50.998Z,41.35
2022-09-29T23:32:53.659Z,39.03
2022-09-29T23:38:14.221Z,30.80
2022-09-29T23:43:16.035Z,32.85
2022-09-29T23:48:17.814Z,27.83
2022-09-29T23:53:19.760Z,29.08
2022-09-29T23:58:21.551Z,29.02
